createdAt,value
2023-12-15T00:04:01.577Z,-9.32
2023-12-15T00:09:04.378Z,-9.32
2023-12-15T00:14:06.951Z,-9.18
2023-12-15T00:19:09.617Z,-9.27
2023-12-15T00:24:12.294Z,-8.97
2023-12-15T00:29:14.943Z,-10.14
2023-12-15T00:34:17.509Z,-9.20
2023-12-15T00:39:20.009Z,-9.24
2023-12-15T00:44:22.657Z,-8.97
2023-12-15T00:49:26.034Z,-8.86
2023-12-15T00:54:28.639Z,-9.10
2023-12-15T00:59:31.286Z,-9.82
2023-12-15T01:04:34.539Z,-8.88
2023-12-15T01:09:38.048Z,-8.76
2023-12-15T01:14:40.702Z,-8.75
2023-12-15T01:19:43.218Z,-8.96
2023-12-15T01:24:45.818Z,-9.24
2023-12-15T01:29:48.423Z,-9.43
2023-12-15T01:34:51.087Z,-9.53
2023-12-15T01:39:53.683Z,-9.09
2023-12-15T01:44:56.223Z,-9.15
2023-12-15T01:49:59.370Z,-9.10
2023-12-15T01:55:01.967Z,-8.65
2023-12-15T02:00:08.550Z,-8.80
2023-12-15T02:05:17.104Z,-9.58
2023-12-15T02:10:20.004Z,-8.85
2023-12-15T02:15:22.803Z,-8.73
2023-12-15T02:20:25.443Z,-9.50
2023-12-15T02:25:28.110Z,-9.88
2023-12-15T02:30:30.719Z,-8.79
2023-12-15T02:35:33.522Z,-8.71
2023-12-15T02:40:39.846Z,-8.59
2023-12-15T02:45:42.388Z,-8.59
2023-12-15T02:50:44.928Z,-8.98
2023-12-15T02:55:47.479Z,-9.22
2023-12-15T03:00:50.135Z,-9.30
2023-12-15T03:05:52.776Z,-8.68
2023-12-15T03:10:59.628Z,-9.04
2023-12-15T03:16:10.904Z,-8.59
2023-12-15T03:21:13.639Z,-10.40
2023-12-15T03:26:16.328Z,-9.79
2023-12-15T03:31:18.886Z,-8.65
2023-12-15T03:36:21.449Z,-9.98
2023-12-15T03:41:24.075Z,-8.66
2023-12-15T03:46:27.149Z,-10.34
2023-12-15T03:51:29.813Z,-10.22
2023-12-15T03:56:33.409Z,-8.58
2023-12-15T04:01:36.220Z,-9.58
2023-12-15T04:06:38.765Z,-9.80
2023-12-15T04:11:41.329Z,-9.38
2023-12-15T04:16:43.980Z,-8.74
2023-12-15T04:21:46.485Z,-9.04
2023-12-15T04:26:48.958Z,-10.54
2023-12-15T04:31:51.469Z,-8.84
2023-12-15T04:36:53.965Z,-10.42
2023-12-15T04:41:56.409Z,-10.60
2023-12-15T04:46:59.117Z,-9.32
2023-12-15T04:52:01.721Z,-8.62
2023-12-15T04:57:04.524Z,-8.74
2023-12-15T05:02:07.762Z,-9.96
2023-12-15T05:07:11.109Z,-9.73
2023-12-15T05:12:13.677Z,-9.24
2023-12-15T05:17:16.166Z,-8.53
2023-12-15T05:22:18.717Z,-8.70
2023-12-15T05:27:21.253Z,-8.52
2023-12-15T05:32:24.270Z,-8.97
2023-12-15T05:37:27.212Z,-8.51
2023-12-15T05:42:29.685Z,-8.76
2023-12-15T05:47:37.920Z,-8.59
2023-12-15T05:52:40.832Z,-8.67
2023-12-15T05:57:43.414Z,-8.79
2023-12-15T06:02:46.367Z,-8.85
2023-12-15T06:07:49.006Z,-8.46
2023-12-15T06:12:51.615Z,-8.57
2023-12-15T06:17:54.333Z,-8.65
2023-12-15T06:22:58.765Z,-8.85
2023-12-15T06:28:01.449Z,-8.42
2023-12-15T06:33:06.727Z,-8.41
2023-12-15T06:38:09.555Z,-8.42
2023-12-15T06:43:12.097Z,-8.62
2023-12-15T06:48:14.752Z,-8.88
2023-12-15T06:53:19.060Z,-8.42
2023-12-15T06:58:21.777Z,-8.65
2023-12-15T07:03:24.406Z,-8.56
2023-12-15T07:08:27.190Z,-8.30
2023-12-15T07:13:29.740Z,-8.58
2023-12-15T07:18:34.496Z,-8.65
2023-12-15T07:23:37.297Z,-8.33
2023-12-15T07:28:39.836Z,-8.24
2023-12-15T07:33:42.610Z,-8.59
2023-12-15T07:38:45.367Z,-8.20
2023-12-15T07:43:47.863Z,-8.26
2023-12-15T07:48:50.443Z,-8.26
2023-12-15T07:53:52.993Z,-8.49
2023-12-15T07:58:56.670Z,-9.12
2023-12-15T08:03:59.226Z,-8.30
2023-12-15T08:09:01.697Z,-8.82
2023-12-15T08:14:04.872Z,-8.77
2023-12-15T08:19:10.200Z,-8.64
2023-12-15T08:24:12.821Z,-8.13
2023-12-15T08:29:15.444Z,-7.99
2023-12-15T08:34:18.287Z,-8.39
2023-12-15T08:39:20.918Z,-8.12
2023-12-15T08:44:29.381Z,-8.14
2023-12-15T08:49:36.637Z,-8.09
2023-12-15T08:54:39.136Z,-8.03
2023-12-15T08:59:42.374Z,-8.18
2023-12-15T09:04:55.568Z,-7.94
2023-12-15T09:10:07.331Z,-7.93
2023-12-15T09:15:10.016Z,-8.32
2023-12-15T09:20:13.958Z,-7.80
2023-12-15T09:25:16.532Z,-7.86
2023-12-15T09:30:19.135Z,-7.76
2023-12-15T09:35:21.606Z,-7.73
2023-12-15T09:40:25.208Z,-7.74
2023-12-15T09:45:27.727Z,-8.11
2023-12-15T09:50:33.642Z,-7.91
2023-12-15T09:55:36.892Z,-7.84
2023-12-15T10:00:40.252Z,-7.68
2023-12-15T10:05:43.607Z,-7.82
2023-12-15T10:10:46.604Z,-7.73
2023-12-15T10:15:52.658Z,-7.77
2023-12-15T10:20:56.664Z,-8.01
2023-12-15T10:26:05.765Z,-7.88
2023-12-15T10:31:09.274Z,-8.09
2023-12-15T10:36:14.399Z,-7.82
2023-12-15T10:41:17.189Z,-7.55
2023-12-15T10:46:22.259Z,-7.63
2023-12-15T10:51:26.449Z,-7.52
2023-12-15T10:56:29.119Z,-8.09
2023-12-15T11:01:33.094Z,-7.93
2023-12-15T11:06:35.648Z,-8.12
2023-12-15T11:11:39.530Z,-8.02
2023-12-15T11:16:43.389Z,-7.84
2023-12-15T11:21:46.049Z,-7.71
2023-12-15T11:26:50.465Z,-7.37
2023-12-15T11:31:56.425Z,-7.72
2023-12-15T11:36:59.001Z,-7.41
2023-12-15T11:42:02.550Z,-7.56
2023-12-15T11:47:05.701Z,-7.26
2023-12-15T11:52:11.745Z,-7.33
2023-12-15T11:57:14.440Z,-7.63
2023-12-15T12:02:18.059Z,-7.31
2023-12-15T12:07:22.058Z,-7.22
2023-12-15T12:12:24.624Z,-7.22
2023-12-15T12:17:27.444Z,-7.59
2023-12-15T12:22:30.129Z,-7.44
2023-12-15T12:27:34.753Z,-7.24
2023-12-15T12:32:37.669Z,-7.25
2023-12-15T12:37:40.874Z,-7.47
2023-12-15T12:42:43.366Z,-7.36
2023-12-15T12:47:50.084Z,-7.42
2023-12-15T12:52:54.623Z,-7.41
2023-12-15T12:57:58.007Z,-7.84
2023-12-15T13:03:00.631Z,-7.59
2023-12-15T13:08:03.542Z,-7.76
2023-12-15T13:13:06.561Z,-7.92
2023-12-15T13:18:11.858Z,-7.85
2023-12-15T13:23:15.293Z,-7.50
2023-12-15T13:28:17.934Z,-7.67
2023-12-15T13:33:22.019Z,-7.50
2023-12-15T13:38:24.713Z,-7.86
2023-12-15T13:43:27.227Z,-7.59
2023-12-15T13:48:29.862Z,-7.92
2023-12-15T13:53:32.470Z,-8.23
2023-12-15T13:58:35.386Z,-7.95
2023-12-15T14:03:38.089Z,-7.83
2023-12-15T14:08:41.419Z,-7.86
2023-12-15T14:13:44.169Z,-8.37
2023-12-15T14:18:47.130Z,-8.20
2023-12-15T14:23:50.034Z,-8.05
2023-12-15T14:28:53.223Z,-8.12
2023-12-15T14:33:55.996Z,-8.64
2023-12-15T14:38:58.823Z,-8.13
2023-12-15T14:44:06.528Z,-8.27
2023-12-15T14:49:09.401Z,-8.18
2023-12-15T14:54:12.032Z,-8.14
2023-12-15T14:59:14.533Z,-8.92
2023-12-15T15:04:17.323Z,-8.05
2023-12-15T15:09:20.296Z,-8.48
2023-12-15T15:14:23.304Z,-8.11
2023-12-15T15:19:27.882Z,-8.53
2023-12-15T15:24:30.868Z,-8.27
2023-12-15T15:29:33.528Z,-8.36
2023-12-15T15:34:42.600Z,-8.34
2023-12-15T15:39:50.883Z,-8.37
2023-12-15T15:44:53.824Z,-8.32
2023-12-15T15:49:57.730Z,-8.41
2023-12-15T15:55:00.936Z,-8.64
2023-12-15T16:00:05.191Z,-8.53
2023-12-15T16:05:13.706Z,-8.89
2023-12-15T16:10:16.653Z,-8.61
2023-12-15T16:15:19.324Z,-8.99
2023-12-15T16:20:24.240Z,-8.65
2023-12-15T16:25:26.768Z,-8.77
2023-12-15T16:30:29.345Z,-8.79
2023-12-15T16:35:32.082Z,-8.82
2023-12-15T16:40:34.746Z,-9.07
2023-12-15T16:45:37.496Z,-9.01
2023-12-15T16:50:40.110Z,-8.99
2023-12-15T16:55:42.619Z,-9.17
2023-12-15T17:00:45.321Z,-8.96
2023-12-15T17:05:48.364Z,-8.83
2023-12-15T17:10:51.054Z,-8.82
2023-12-15T17:15:53.652Z,-9.57
2023-12-15T17:20:56.384Z,-9.06
2023-12-15T17:25:59.137Z,-8.93
2023-12-15T17:31:02.234Z,-9.04
2023-12-15T17:36:05.713Z,-9.12
2023-12-15T17:41:08.533Z,-8.87
2023-12-15T17:46:25.232Z,-9.03
2023-12-15T17:51:27.970Z,-9.21
2023-12-15T17:56:33.457Z,-8.99
2023-12-15T18:01:36.270Z,-9.06
2023-12-15T18:06:39.203Z,-9.37
2023-12-15T18:11:41.803Z,-9.55
2023-12-15T18:16:44.398Z,-9.81
2023-12-15T18:21:47.038Z,-9.39
2023-12-15T18:26:49.871Z,-9.36
2023-12-15T18:31:52.631Z,-9.45
2023-12-15T18:36:55.522Z,-9.86
2023-12-15T18:41:58.215Z,-9.38
2023-12-15T18:47:00.907Z,-9.54
2023-12-15T18:52:04.087Z,-9.48
2023-12-15T18:57:06.670Z,-9.59
2023-12-15T19:02:10.097Z,-9.73
2023-12-15T19:07:12.785Z,-9.92
2023-12-15T19:12:15.385Z,-10.53
2023-12-15T19:17:18.729Z,-10.01
2023-12-15T19:22:21.508Z,-11.90
2023-12-15T19:27:26.453Z,-10.23
2023-12-15T19:32:37.601Z,-10.71
2023-12-15T19:37:41.237Z,-10.36
2023-12-15T19:42:44.702Z,-10.31
2023-12-15T19:47:51.769Z,-11.12
2023-12-15T19:52:55.238Z,-10.77
2023-12-15T19:57:57.866Z,-11.14
2023-12-15T20:03:00.721Z,-11.09
2023-12-15T20:08:03.266Z,-11.01
2023-12-15T20:13:05.932Z,-10.71
2023-12-15T20:18:08.714Z,-10.82
2023-12-15T20:23:11.372Z,-10.95
2023-12-15T20:28:15.040Z,-10.83
2023-12-15T20:33:17.736Z,-11.47
2023-12-15T20:38:22.364Z,-11.06
2023-12-15T20:43:25.668Z,-11.38
2023-12-15T20:48:28.708Z,-11.93
2023-12-15T20:53:31.295Z,-11.87
2023-12-15T20:58:33.874Z,-11.13
2023-12-15T21:03:37.751Z,-11.24
2023-12-15T21:08:40.289Z,-11.13
2023-12-15T21:13:43.038Z,-12.71
2023-12-15T21:18:45.678Z,-11.24
2023-12-15T21:23:48.301Z,-11.91
2023-12-15T21:28:51.082Z,-11.39
2023-12-15T21:33:53.796Z,-11.42
2023-12-15T21:38:56.452Z,-11.69
2023-12-15T21:43:58.992Z,-11.30
2023-12-15T21:49:01.716Z,-11.81
2023-12-15T21:54:07.681Z,-11.45
2023-12-15T21:59:10.253Z,-11.55
2023-12-15T22:04:13.197Z,-11.61
2023-12-15T22:09:15.923Z,-11.52
2023-12-15T22:14:23.748Z,-11.53
2023-12-15T22:19:28.882Z,-11.31
2023-12-15T22:24:31.584Z,-11.39
2023-12-15T22:29:34.116Z,-11.31
2023-12-15T22:34:36.884Z,-11.46
2023-12-15T22:39:39.928Z,-11.38
2023-12-15T22:44:42.449Z,-11.53
2023-12-15T22:49:45.116Z,-11.99
2023-12-15T22:54:50.838Z,-11.34
2023-12-15T22:59:53.495Z,-11.26
2023-12-15T23:04:56.107Z,-11.91
2023-12-15T23:09:58.710Z,-11.23
2023-12-15T23:15:07.370Z,-11.39
2023-12-15T23:20:19.054Z,-11.41
2023-12-15T23:25:21.760Z,-12.14
2023-12-15T23:30:24.563Z,-11.16
2023-12-15T23:35:27.077Z,-11.63
2023-12-15T23:40:29.616Z,-11.26
2023-12-15T23:45:32.370Z,-11.52
2023-12-15T23:50:34.936Z,-11.90
2023-12-15T23:55:40.459Z,-11.24
